Time;durP1;ratioP1;P1;durP2;ratioP2;P2;SDS_P1;SDS_P2;PMS_P1;PMS_P2;Temp;Humidity;BMP_temperature;BMP_pressure;BME280_temperature;BME280_humidity;BME280_pressure;Samples;Min_cycle;Max_cycle;Signal;HPM_P1;HPM_P2
2023/03/08 00:00:00;;;;;;;3.2;3.1;;;;;;;-0.0;100.0;99860;;;;
2023/03/08 00:01:00;;;;;;;3.2;3.1;;;;;;;-0.0;100.0;99860;;;;
2023/03/08 00:02:00;;;;;;;3.2;3.1;;;;;;;0.0;100.0;99870;;;;
2023/03/08 00:03:01;;;;;;;3.2;3.1;;;;;;;0.0;100.0;99870;;;;
2023/03/08 00:04:01;;;;;;;3.2;3.1;;;;;;;0.0;100.0;99870;;;;
2023/03/08 00:05:00;;;;;;;3.2;3.1;;;;;;;0.0;100.0;99870;;;;
2023/03/08 00:06:03;;;;;;;3.2;3.1;;;;;;;0.0;100.0;99870;;;;
2023/03/08 00:07:00;;;;;;;3.2;3.1;;;;;;;0.0;100.0;99870;;;;
2023/03/08 00:08:00;;;;;;;3.2;3.1;;;;;;;-0.1;100.0;99870;;;;
2023/03/08 00:09:00;;;;;;;3.2;3.1;;;;;;;-0.1;100.0;99870;;;;
2023/03/08 00:10:00;;;;;;;3.5;3.4;;;;;;;-0.1;100.0;99870;;;;
2023/03/08 00:11:03;;;;;;;3.5;3.4;;;;;;;-0.1;100.0;99870;;;;
2023/03/08 00:12:00;;;;;;;3.5;3.4;;;;;;;-0.1;100.0;99870;;;;
2023/03/08 00:13:00;;;;;;;3.5;3.4;;;;;;;-0.1;100.0;99870;;;;
2023/03/08 00:14:02;;;;;;;3.5;3.4;;;;;;;-0.0;100.0;99860;;;;
2023/03/08 00:15:00;;;;;;;3.5;3.4;;;;;;;-0.0;100.0;99860;;;;
2023/03/08 00:16:01;;;;;;;3.5;3.4;;;;;;;-0.1;100.0;99860;;;;
2023/03/08 00:17:01;;;;;;;3.5;3.4;;;;;;;-0.1;100.0;99860;;;;
2023/03/08 00:18:00;;;;;;;3.5;3.4;;;;;;;-0.1;100.0;99860;;;;
2023/03/08 00:19:00;;;;;;;3.5;3.4;;;;;;;-0.1;100.0;99860;;;;
2023/03/08 00:20:00;;;;;;;3.5;3.4;;;;;;;-0.1;100.0;99860;;;;
2023/03/08 00:21:01;;;;;;;3.5;3.4;;;;;;;-0.1;100.0;99860;;;;
2023/03/08 00:22:00;;;;;;;3.5;3.4;;;;;;;-0.1;100.0;99860;;;;
2023/03/08 00:23:00;;;;;;;3.5;3.4;;;;;;;-0.1;100.0;99860;;;;
2023/03/08 00:24:00;;;;;;;3.5;3.4;;;;;;;-0.1;100.0;99850;;;;
2023/03/08 00:25:00;;;;;;;3.5;3.4;;;;;;;-0.1;100.0;99850;;;;
2023/03/08 00:26:00;;;;;;;3.5;3.4;;;;;;;-0.1;100.0;99860;;;;
2023/03/08 00:27:00;;;;;;;3.5;3.4;;;;;;;-0.1;100.0;99860;;;;
2023/03/08 00:28:00;;;;;;;3.5;3.4;;;;;;;-0.1;100.0;99850;;;;
2023/03/08 00:29:00;;;;;;;3.3;3.2;;;;;;;-0.1;100.0;99850;;;;
2023/03/08 00:30:00;;;;;;;3.3;3.2;;;;;;;-0.1;100.0;99860;;;;
2023/03/08 00:31:02;;;;;;;3.3;3.2;;;;;;;-0.1;100.0;99860;;;;
2023/03/08 00:32:00;;;;;;;3.3;3.2;;;;;;;-0.1;100.0;99860;;;;
2023/03/08 00:33:00;;;;;;;3.3;3.2;;;;;;;-0.1;100.0;99860;;;;
2023/03/08 00:34:00;;;;;;;3.3;3.2;;;;;;;-0.1;100.0;99850;;;;
2023/03/08 00:35:00;;;;;;;3.3;3.2;;;;;;;-0.1;100.0;99850;;;;
2023/03/08 00:36:01;;;;;;;3.3;3.2;;;;;;;-0.2;100.0;99850;;;;
2023/03/08 00:37:00;;;;;;;3.3;3.2;;;;;;;-0.2;100.0;99850;;;;
2023/03/08 00:38:00;;;;;;;3.3;3.2;;;;;;;-0.3;100.0;99850;;;;
2023/03/08 00:39:00;;;;;;;3.3;3.2;;;;;;;-0.3;100.0;99850;;;;
2023/03/08 00:40:00;;;;;;;3.3;3.2;;;;;;;-0.3;100.0;99860;;;;
2023/03/08 00:41:00;;;;;;;3.3;3.2;;;;;;;-0.3;100.0;99860;;;;
2023/03/08 00:42:00;;;;;;;3.3;3.2;;;;;;;-0.3;100.0;99850;;;;
2023/03/08 00:43:00;;;;;;;3.3;3.2;;;;;;;-0.3;100.0;99850;;;;
2023/03/08 00:44:00;;;;;;;3.3;3.2;;;;;;;-0.3;100.0;99850;;;;
2023/03/08 00:45:00;;;;;;;3.3;3.2;;;;;;;-0.3;100.0;99850;;;;
2023/03/08 00:46:00;;;;;;;3.3;3.2;;;;;;;-0.2;100.0;99860;;;;
2023/03/08 00:47:00;;;;;;;3.3;3.2;;;;;;;-0.2;100.0;99860;;;;
2023/03/08 00:48:00;;;;;;;3.3;3.2;;;;;;;-0.2;100.0;99850;;;;
2023/03/08 00:49:00;;;;;;;3.3;3.2;;;;;;;-0.2;100.0;99850;;;;
2023/03/08 00:50:00;;;;;;;3.3;3.2;;;;;;;-0.2;100.0;99860;;;;
2023/03/08 00:51:00;;;;;;;3.3;3.2;;;;;;;-0.2;100.0;99860;;;;
2023/03/08 00:52:00;;;;;;;3.3;3.2;;;;;;;-0.1;100.0;99850;;;;
2023/03/08 00:53:00;;;;;;;3.3;3.2;;;;;;;-0.1;100.0;99850;;;;
2023/03/08 00:54:00;;;;;;;3.3;3.2;;;;;;;-0.2;100.0;99850;;;;
2023/03/08 00:55:00;;;;;;;3.3;3.2;;;;;;;-0.2;100.0;99850;;;;
2023/03/08 00:56:00;;;;;;;3.3;3.2;;;;;;;-0.2;100.0;99850;;;;
2023/03/08 00:57:00;;;;;;;3.3;3.2;;;;;;;-0.2;100.0;99850;;;;
2023/03/08 00:58:00;;;;;;;3.3;3.2;;;;;;;-0.1;100.0;99850;;;;
2023/03/08 00:59:00;;;;;;;3.3;3.2;;;;;;;-0.1;100.0;99850;;;;
2023/03/08 01:00:01;;;;;;;3.3;3.2;;;;;;;-0.2;100.0;99850;;;;
2023/03/08 01:01:00;;;;;;;3.3;3.2;;;;;;;-0.2;100.0;99850;;;;
2023/03/08 01:02:00;;;;;;;3.3;3.2;;;;;;;-0.1;100.0;99840;;;;
2023/03/08 01:03:00;;;;;;;3.3;3.2;;;;;;;-0.1;100.0;99840;;;;
2023/03/08 01:04:00;;;;;;;3.3;3.2;;;;;;;-0.1;100.0;99840;;;;
2023/03/08 01:05:00;;;;;;;3.3;3.2;;;;;;;-0.1;100.0;99840;;;;
2023/03/08 01:06:04;;;;;;;3.3;3.2;;;;;;;-0.2;100.0;99840;;;;
2023/03/08 01:07:00;;;;;;;3.3;3.2;;;;;;;-0.2;100.0;99840;;;;
2023/03/08 01:08:02;;;;;;;3.3;3.2;;;;;;;-0.2;100.0;99840;;;;
2023/03/08 01:09:00;;;;;;;3.9;3.8;;;;;;;-0.2;100.0;99840;;;;
2023/03/08 01:10:00;;;;;;;3.9;3.8;;;;;;;-0.1;100.0;99840;;;;
2023/03/08 01:11:01;;;;;;;3.9;3.8;;;;;;;-0.1;100.0;99840;;;;
2023/03/08 01:12:00;;;;;;;3.9;3.8;;;;;;;-0.1;100.0;99830;;;;
2023/03/08 01:13:00;;;;;;;3.9;3.8;;;;;;;-0.1;100.0;99830;;;;
2023/03/08 01:14:00;;;;;;;3.9;3.8;;;;;;;-0.1;100.0;99830;;;;
2023/03/08 01:15:00;;;;;;;3.9;3.8;;;;;;;-0.1;100.0;99830;;;;
2023/03/08 01:16:00;;;;;;;3.9;3.8;;;;;;;-0.2;100.0;99840;;;;
2023/03/08 01:17:00;;;;;;;3.9;3.8;;;;;;;-0.2;100.0;99840;;;;
2023/03/08 01:18:00;;;;;;;3.9;3.8;;;;;;;-0.2;100.0;99830;;;;
2023/03/08 01:19:00;;;;;;;3.9;3.8;;;;;;;-0.2;100.0;99830;;;;
2023/03/08 01:20:00;;;;;;;3.9;3.8;;;;;;;-0.0;100.0;99820;;;;
2023/03/08 01:21:02;;;;;;;3.9;3.8;;;;;;;-0.0;100.0;99820;;;;
2023/03/08 01:22:00;;;;;;;3.9;3.8;;;;;;;-0.1;100.0;99820;;;;
2023/03/08 01:23:00;;;;;;;3.9;3.8;;;;;;;-0.1;100.0;99820;;;;
2023/03/08 01:24:00;;;;;;;3.9;3.8;;;;;;;-0.1;100.0;99820;;;;
2023/03/08 01:25:00;;;;;;;3.9;3.8;;;;;;;-0.1;100.0;99820;;;;
2023/03/08 01:26:03;;;;;;;3.9;3.8;;;;;;;-0.2;100.0;99810;;;;
2023/03/08 01:27:00;;;;;;;3.9;3.8;;;;;;;-0.2;100.0;99810;;;;
2023/03/08 01:28:00;;;;;;;3.9;3.8;;;;;;;-0.2;100.0;99810;;;;
2023/03/08 01:29:00;;;;;;;3.6;3.5;;;;;;;-0.2;100.0;99810;;;;
2023/03/08 01:30:00;;;;;;;3.6;3.5;;;;;;;-0.1;100.0;99810;;;;
2023/03/08 01:31:01;;;;;;;3.6;3.5;;;;;;;-0.1;100.0;99810;;;;
2023/03/08 01:32:00;;;;;;;3.6;3.5;;;;;;;-0.1;100.0;99800;;;;
2023/03/08 01:33:00;;;;;;;3.6;3.5;;;;;;;-0.1;100.0;99800;;;;
2023/03/08 01:34:00;;;;;;;3.6;3.5;;;;;;;-0.2;100.0;99800;;;;
2023/03/08 01:35:03;;;;;;;3.6;3.5;;;;;;;-0.2;100.0;99800;;;;
2023/03/08 01:36:02;;;;;;;3.6;3.5;;;;;;;-0.2;100.0;99800;;;;
2023/03/08 01:37:00;;;;;;;3.6;3.5;;;;;;;-0.2;100.0;99800;;;;
2023/03/08 01:38:00;;;;;;;3.6;3.5;;;;;;;-0.2;100.0;99790;;;;
2023/03/08 01:39:00;;;;;;;3.6;3.5;;;;;;;-0.2;100.0;99790;;;;
2023/03/08 01:40:00;;;;;;;3.6;3.5;;;;;;;-0.3;100.0;99790;;;;
2023/03/08 01:41:01;;;;;;;3.6;3.5;;;;;;;-0.3;100.0;99790;;;;
2023/03/08 01:42:05;;;;;;;3.6;3.5;;;;;;;-0.2;100.0;99790;;;;
2023/03/08 01:43:10;;;;;;;3.6;3.5;;;;;;;-0.2;100.0;99790;;;;
2023/03/08 01:44:00;;;;;;;3.6;3.5;;;;;;;-0.3;100.0;99790;;;;
2023/03/08 01:45:02;;;;;;;3.6;3.5;;;;;;;-0.3;100.0;99790;;;;
2023/03/08 01:46:04;;;;;;;3.6;3.5;;;;;;;-0.2;100.0;99780;;;;
2023/03/08 01:47:00;;;;;;;3.6;3.5;;;;;;;-0.2;100.0;99780;;;;
2023/03/08 01:48:00;;;;;;;3.6;3.5;;;;;;;-0.1;100.0;99780;;;;
2023/03/08 01:49:05;;;;;;;3.4;3.3;;;;;;;-0.1;100.0;99780;;;;
2023/03/08 01:50:03;;;;;;;3.4;3.3;;;;;;;-0.2;100.0;99780;;;;
2023/03/08 01:51:02;;;;;;;3.4;3.3;;;;;;;-0.2;100.0;99780;;;;
2023/03/08 01:52:02;;;;;;;3.4;3.3;;;;;;;-0.1;100.0;99780;;;;
2023/03/08 01:53:00;;;;;;;3.4;3.3;;;;;;;-0.1;100.0;99780;;;;
2023/03/08 01:54:02;;;;;;;3.4;3.3;;;;;;;-0.1;100.0;99780;;;;
2023/03/08 01:55:03;;;;;;;3.4;3.3;;;;;;;-0.1;100.0;99780;;;;
2023/03/08 01:56:00;;;;;;;3.4;3.3;;;;;;;-0.1;100.0;99770;;;;
2023/03/08 01:57:03;;;;;;;3.4;3.3;;;;;;;-0.1;100.0;99770;;;;
2023/03/08 01:58:00;;;;;;;3.4;3.3;;;;;;;-0.1;100.0;99760;;;;
2023/03/08 01:59:00;;;;;;;3.4;3.3;;;;;;;-0.1;100.0;99760;;;;
2023/03/08 02:00:04;;;;;;;3.4;3.3;;;;;;;-0.2;100.0;99760;;;;
2023/03/08 02:01:00;;;;;;;3.4;3.3;;;;;;;-0.2;100.0;99760;;;;
2023/03/08 02:02:01;;;;;;;3.4;3.3;;;;;;;-0.1;100.0;99770;;;;
2023/03/08 02:03:02;;;;;;;3.4;3.3;;;;;;;-0.1;100.0;99770;;;;
2023/03/08 02:04:00;;;;;;;3.4;3.3;;;;;;;-0.1;100.0;99760;;;;
2023/03/08 02:05:00;;;;;;;3.4;3.3;;;;;;;-0.1;100.0;99760;;;;
2023/03/08 02:06:01;;;;;;;3.4;3.3;;;;;;;-0.1;100.0;99760;;;;
2023/03/08 02:07:00;;;;;;;3.4;3.3;;;;;;;-0.1;100.0;99760;;;;
2023/03/08 02:08:00;;;;;;;3.4;3.3;;;;;;;-0.1;100.0;99760;;;;
2023/03/08 02:09:03;;;;;;;3.6;3.5;;;;;;;-0.1;100.0;99760;;;;
2023/03/08 02:10:00;;;;;;;3.6;3.5;;;;;;;-0.1;100.0;99760;;;;
2023/03/08 02:11:00;;;;;;;3.6;3.5;;;;;;;-0.1;100.0;99760;;;;
2023/03/08 02:12:03;;;;;;;3.6;3.5;;;;;;;0.0;100.0;99760;;;;
2023/03/08 02:13:01;;;;;;;3.6;3.5;;;;;;;0.0;100.0;99760;;;;
2023/03/08 02:14:00;;;;;;;3.6;3.5;;;;;;;-0.0;100.0;99760;;;;
2023/03/08 02:15:01;;;;;;;3.6;3.5;;;;;;;-0.0;100.0;99760;;;;
2023/03/08 02:16:01;;;;;;;3.6;3.5;;;;;;;-0.0;100.0;99760;;;;
2023/03/08 02:17:00;;;;;;;3.6;3.5;;;;;;;-0.0;100.0;99760;;;;
2023/03/08 02:18:00;;;;;;;3.6;3.5;;;;;;;-0.1;100.0;99750;;;;
2023/03/08 02:19:02;;;;;;;3.6;3.5;;;;;;;-0.1;100.0;99750;;;;
2023/03/08 02:20:09;;;;;;;3.6;3.5;;;;;;;-0.0;100.0;99750;;;;
2023/03/08 02:21:00;;;;;;;3.6;3.5;;;;;;;-0.0;100.0;99750;;;;
2023/03/08 02:22:06;;;;;;;3.6;3.5;;;;;;;0.1;100.0;99740;;;;
2023/03/08 02:23:10;;;;;;;3.6;3.5;;;;;;;0.1;100.0;99740;;;;
2023/03/08 02:24:04;;;;;;;3.6;3.5;;;;;;;0.0;100.0;99740;;;;
2023/03/08 02:25:00;;;;;;;3.6;3.5;;;;;;;0.0;100.0;99740;;;;
2023/03/08 02:26:02;;;;;;;3.6;3.5;;;;;;;0.0;100.0;99740;;;;
2023/03/08 02:27:01;;;;;;;3.6;3.5;;;;;;;0.0;100.0;99740;;;;
2023/03/08 02:28:00;;;;;;;3.6;3.5;;;;;;;0.1;100.0;99730;;;;
2023/03/08 02:29:00;;;;;;;3.4;3.3;;;;;;;0.1;100.0;99730;;;;
2023/03/08 02:30:02;;;;;;;3.4;3.3;;;;;;;0.0;100.0;99730;;;;
2023/03/08 02:31:00;;;;;;;3.4;3.3;;;;;;;0.0;100.0;99730;;;;
2023/03/08 02:32:00;;;;;;;3.4;3.3;;;;;;;0.1;100.0;99730;;;;
2023/03/08 02:33:00;;;;;;;3.4;3.3;;;;;;;0.1;100.0;99730;;;;
2023/03/08 02:34:00;;;;;;;3.4;3.3;;;;;;;0.1;100.0;99720;;;;
2023/03/08 02:35:01;;;;;;;3.4;3.3;;;;;;;0.1;100.0;99720;;;;
2023/03/08 02:36:01;;;;;;;3.4;3.3;;;;;;;0.1;100.0;99720;;;;
2023/03/08 02:37:00;;;;;;;3.4;3.3;;;;;;;0.1;100.0;99720;;;;
2023/03/08 02:38:00;;;;;;;3.4;3.3;;;;;;;0.0;100.0;99720;;;;
2023/03/08 02:39:00;;;;;;;3.4;3.3;;;;;;;0.0;100.0;99720;;;;
2023/03/08 02:40:00;;;;;;;3.4;3.3;;;;;;;0.1;100.0;99710;;;;
2023/03/08 02:41:00;;;;;;;3.4;3.3;;;;;;;0.1;100.0;99710;;;;
2023/03/08 02:42:00;;;;;;;3.4;3.3;;;;;;;0.1;100.0;99720;;;;
2023/03/08 02:43:00;;;;;;;3.4;3.3;;;;;;;0.1;100.0;99720;;;;
2023/03/08 02:44:00;;;;;;;3.4;3.3;;;;;;;0.1;100.0;99720;;;;
2023/03/08 02:45:00;;;;;;;3.4;3.3;;;;;;;0.1;100.0;99720;;;;
2023/03/08 02:46:00;;;;;;;3.4;3.3;;;;;;;0.1;100.0;99710;;;;
2023/03/08 02:47:00;;;;;;;3.4;3.3;;;;;;;0.1;100.0;99710;;;;
2023/03/08 02:48:01;;;;;;;3.4;3.3;;;;;;;0.1;100.0;99710;;;;
2023/03/08 02:49:00;;;;;;;3.5;3.4;;;;;;;0.1;100.0;99710;;;;
2023/03/08 02:50:00;;;;;;;3.5;3.4;;;;;;;0.2;100.0;99710;;;;
2023/03/08 02:51:00;;;;;;;3.5;3.4;;;;;;;0.2;100.0;99710;;;;
2023/03/08 02:52:00;;;;;;;3.5;3.4;;;;;;;0.2;100.0;99700;;;;
2023/03/08 02:53:00;;;;;;;3.5;3.4;;;;;;;0.2;100.0;99700;;;;
2023/03/08 02:54:00;;;;;;;3.5;3.4;;;;;;;0.2;100.0;99700;;;;
2023/03/08 02:55:00;;;;;;;3.5;3.4;;;;;;;0.2;100.0;99700;;;;
2023/03/08 02:56:00;;;;;;;3.5;3.4;;;;;;;0.1;100.0;99690;;;;
2023/03/08 02:57:00;;;;;;;3.5;3.4;;;;;;;0.1;100.0;99690;;;;
2023/03/08 02:58:00;;;;;;;3.5;3.4;;;;;;;0.2;100.0;99700;;;;
2023/03/08 02:59:00;;;;;;;3.5;3.4;;;;;;;0.2;100.0;99700;;;;
2023/03/08 03:00:00;;;;;;;3.5;3.4;;;;;;;0.2;100.0;99700;;;;
2023/03/08 03:01:00;;;;;;;3.5;3.4;;;;;;;0.2;100.0;99700;;;;
2023/03/08 03:02:00;;;;;;;3.5;3.4;;;;;;;0.2;100.0;99700;;;;
2023/03/08 03:03:00;;;;;;;3.5;3.4;;;;;;;0.2;100.0;99700;;;;
2023/03/08 03:04:00;;;;;;;3.5;3.4;;;;;;;0.2;100.0;99700;;;;
2023/03/08 03:05:02;;;;;;;3.5;3.4;;;;;;;0.2;100.0;99700;;;;
2023/03/08 03:06:00;;;;;;;3.5;3.4;;;;;;;0.2;100.0;99700;;;;
2023/03/08 03:07:00;;;;;;;3.5;3.4;;;;;;;0.2;100.0;99700;;;;
2023/03/08 03:08:00;;;;;;;3.5;3.4;;;;;;;0.2;100.0;99700;;;;
2023/03/08 03:09:00;;;;;;;3.1;3.0;;;;;;;0.2;100.0;99700;;;;
2023/03/08 03:10:00;;;;;;;3.1;3.0;;;;;;;0.4;100.0;99700;;;;
2023/03/08 03:11:00;;;;;;;3.1;3.0;;;;;;;0.4;100.0;99700;;;;
2023/03/08 03:12:00;;;;;;;3.1;3.0;;;;;;;0.3;100.0;99700;;;;
2023/03/08 03:13:00;;;;;;;3.1;3.0;;;;;;;0.3;100.0;99700;;;;
2023/03/08 03:14:00;;;;;;;3.1;3.0;;;;;;;0.3;100.0;99700;;;;
2023/03/08 03:15:01;;;;;;;3.1;3.0;;;;;;;0.3;100.0;99700;;;;
2023/03/08 03:16:04;;;;;;;3.1;3.0;;;;;;;0.3;100.0;99700;;;;
2023/03/08 03:17:00;;;;;;;3.1;3.0;;;;;;;0.3;100.0;99700;;;;
2023/03/08 03:18:00;;;;;;;3.1;3.0;;;;;;;0.2;100.0;99700;;;;
2023/03/08 03:19:00;;;;;;;3.1;3.0;;;;;;;0.2;100.0;99700;;;;
2023/03/08 03:20:00;;;;;;;3.1;3.0;;;;;;;0.3;100.0;99680;;;;
2023/03/08 03:21:02;;;;;;;3.1;3.0;;;;;;;0.3;100.0;99680;;;;
2023/03/08 03:22:00;;;;;;;3.1;3.0;;;;;;;0.3;100.0;99680;;;;
2023/03/08 03:23:00;;;;;;;3.1;3.0;;;;;;;0.3;100.0;99680;;;;
2023/03/08 03:24:00;;;;;;;3.1;3.0;;;;;;;0.3;100.0;99680;;;;
2023/03/08 03:25:00;;;;;;;3.1;3.0;;;;;;;0.3;100.0;99680;;;;
2023/03/08 03:26:10;;;;;;;3.1;3.0;;;;;;;0.4;100.0;99680;;;;
2023/03/08 03:27:00;;;;;;;3.1;3.0;;;;;;;0.4;100.0;99680;;;;
2023/03/08 03:28:00;;;;;;;3.1;3.0;;;;;;;0.5;100.0;99670;;;;
2023/03/08 03:29:00;;;;;;;3.2;3.1;;;;;;;0.5;100.0;99670;;;;
2023/03/08 03:30:00;;;;;;;3.2;3.1;;;;;;;0.3;100.0;99670;;;;
2023/03/08 03:31:00;;;;;;;3.2;3.1;;;;;;;0.3;100.0;99670;;;;
2023/03/08 03:32:00;;;;;;;3.2;3.1;;;;;;;0.4;100.0;99670;;;;
2023/03/08 03:33:00;;;;;;;3.2;3.1;;;;;;;0.4;100.0;99670;;;;
2023/03/08 03:34:00;;;;;;;3.2;3.1;;;;;;;0.4;100.0;99670;;;;
2023/03/08 03:35:00;;;;;;;3.2;3.1;;;;;;;0.4;100.0;99670;;;;
2023/03/08 03:36:01;;;;;;;3.2;3.1;;;;;;;0.4;100.0;99670;;;;
2023/03/08 03:37:00;;;;;;;3.2;3.1;;;;;;;0.4;100.0;99670;;;;
2023/03/08 03:38:00;;;;;;;3.2;3.1;;;;;;;0.3;100.0;99660;;;;
2023/03/08 03:39:00;;;;;;;3.2;3.1;;;;;;;0.3;100.0;99660;;;;
2023/03/08 03:40:00;;;;;;;3.2;3.1;;;;;;;0.5;100.0;99660;;;;
2023/03/08 03:41:01;;;;;;;3.2;3.1;;;;;;;0.5;100.0;99660;;;;
2023/03/08 03:42:00;;;;;;;3.2;3.1;;;;;;;0.5;100.0;99640;;;;
2023/03/08 03:43:00;;;;;;;3.2;3.1;;;;;;;0.5;100.0;99640;;;;
2023/03/08 03:44:00;;;;;;;3.2;3.1;;;;;;;0.4;100.0;99640;;;;
2023/03/08 03:45:00;;;;;;;3.2;3.1;;;;;;;0.4;100.0;99640;;;;
2023/03/08 03:46:01;;;;;;;3.2;3.1;;;;;;;0.5;100.0;99630;;;;
2023/03/08 03:47:00;;;;;;;3.2;3.1;;;;;;;0.5;100.0;99630;;;;
2023/03/08 03:48:00;;;;;;;3.9;3.7;;;;;;;0.6;100.0;99620;;;;
2023/03/08 03:49:00;;;;;;;3.9;3.7;;;;;;;0.6;100.0;99620;;;;
2023/03/08 03:50:00;;;;;;;3.9;3.7;;;;;;;0.6;100.0;99630;;;;
2023/03/08 03:51:01;;;;;;;3.9;3.7;;;;;;;0.6;100.0;99630;;;;
2023/03/08 03:52:00;;;;;;;3.9;3.7;;;;;;;0.4;100.0;99620;;;;
2023/03/08 03:53:00;;;;;;;3.9;3.7;;;;;;;0.4;100.0;99620;;;;
2023/03/08 03:54:01;;;;;;;3.9;3.7;;;;;;;0.5;100.0;99620;;;;
2023/03/08 03:55:00;;;;;;;3.9;3.7;;;;;;;0.5;100.0;99620;;;;
2023/03/08 03:56:01;;;;;;;3.9;3.7;;;;;;;0.5;100.0;99620;;;;
2023/03/08 03:57:00;;;;;;;3.9;3.7;;;;;;;0.5;100.0;99620;;;;
2023/03/08 03:58:00;;;;;;;3.9;3.7;;;;;;;0.4;100.0;99620;;;;
2023/03/08 03:59:00;;;;;;;3.9;3.7;;;;;;;0.4;100.0;99620;;;;
2023/03/08 04:00:00;;;;;;;3.9;3.7;;;;;;;0.5;100.0;99620;;;;
2023/03/08 04:01:00;;;;;;;3.9;3.7;;;;;;;0.5;100.0;99620;;;;
2023/03/08 04:02:00;;;;;;;3.9;3.7;;;;;;;0.5;100.0;99630;;;;
2023/03/08 04:03:00;;;;;;;3.9;3.7;;;;;;;0.5;100.0;99630;;;;
2023/03/08 04:04:00;;;;;;;3.9;3.7;;;;;;;0.5;100.0;99620;;;;
2023/03/08 04:05:00;;;;;;;3.9;3.7;;;;;;;0.5;100.0;99620;;;;
2023/03/08 04:06:10;;;;;;;3.9;3.7;;;;;;;0.5;100.0;99620;;;;
2023/03/08 04:07:00;;;;;;;3.9;3.7;;;;;;;0.5;100.0;99620;;;;
2023/03/08 04:08:00;;;;;;;3.0;2.9;;;;;;;0.6;100.0;99610;;;;
2023/03/08 04:09:02;;;;;;;3.0;2.9;;;;;;;0.6;100.0;99610;;;;
2023/03/08 04:10:00;;;;;;;3.0;2.9;;;;;;;0.5;100.0;99610;;;;
2023/03/08 04:11:00;;;;;;;3.0;2.9;;;;;;;0.5;100.0;99610;;;;
2023/03/08 04:12:04;;;;;;;3.0;2.9;;;;;;;0.5;100.0;99620;;;;
2023/03/08 04:13:00;;;;;;;3.0;2.9;;;;;;;0.5;100.0;99620;;;;
2023/03/08 04:14:00;;;;;;;3.0;2.9;;;;;;;0.5;100.0;99610;;;;
2023/03/08 04:15:00;;;;;;;3.0;2.9;;;;;;;0.5;100.0;99610;;;;
2023/03/08 04:16:07;;;;;;;3.0;2.9;;;;;;;0.6;100.0;99610;;;;
2023/03/08 04:17:00;;;;;;;3.0;2.9;;;;;;;0.6;100.0;99610;;;;
2023/03/08 04:18:00;;;;;;;3.0;2.9;;;;;;;0.6;100.0;99600;;;;
2023/03/08 04:19:02;;;;;;;3.0;2.9;;;;;;;0.6;100.0;99600;;;;
2023/03/08 04:20:00;;;;;;;3.0;2.9;;;;;;;0.7;100.0;99600;;;;
2023/03/08 04:21:00;;;;;;;3.0;2.9;;;;;;;0.7;100.0;99600;;;;
2023/03/08 04:22:00;;;;;;;3.0;2.9;;;;;;;0.7;100.0;99590;;;;
2023/03/08 04:23:00;;;;;;;3.0;2.9;;;;;;;0.7;100.0;99590;;;;
2023/03/08 04:24:01;;;;;;;3.0;2.9;;;;;;;0.8;100.0;99580;;;;
2023/03/08 04:25:00;;;;;;;3.0;2.9;;;;;;;0.8;100.0;99580;;;;
2023/03/08 04:26:01;;;;;;;3.0;2.9;;;;;;;0.6;100.0;99580;;;;
2023/03/08 04:27:00;;;;;;;3.0;2.9;;;;;;;0.6;100.0;99580;;;;
2023/03/08 04:28:00;;;;;;;3.1;3.0;;;;;;;0.6;100.0;99580;;;;
2023/03/08 04:29:04;;;;;;;3.1;3.0;;;;;;;0.6;100.0;99580;;;;
2023/03/08 04:30:00;;;;;;;3.1;3.0;;;;;;;0.7;100.0;99580;;;;
2023/03/08 04:31:10;;;;;;;3.1;3.0;;;;;;;0.7;100.0;99580;;;;
2023/03/08 04:32:00;;;;;;;3.1;3.0;;;;;;;0.6;100.0;99580;;;;
2023/03/08 04:33:00;;;;;;;3.1;3.0;;;;;;;0.6;100.0;99580;;;;
2023/03/08 04:34:01;;;;;;;3.1;3.0;;;;;;;0.9;100.0;99580;;;;
2023/03/08 04:35:00;;;;;;;3.1;3.0;;;;;;;0.9;100.0;99580;;;;
2023/03/08 04:36:00;;;;;;;3.1;3.0;;;;;;;0.7;100.0;99580;;;;
2023/03/08 04:37:00;;;;;;;3.1;3.0;;;;;;;0.7;100.0;99580;;;;
2023/03/08 04:38:00;;;;;;;3.1;3.0;;;;;;;0.7;100.0;99570;;;;
2023/03/08 04:39:00;;;;;;;3.1;3.0;;;;;;;0.7;100.0;99570;;;;
2023/03/08 04:40:00;;;;;;;3.1;3.0;;;;;;;0.7;100.0;99570;;;;
2023/03/08 04:41:00;;;;;;;3.1;3.0;;;;;;;0.7;100.0;99570;;;;
2023/03/08 04:42:00;;;;;;;3.1;3.0;;;;;;;0.7;100.0;99570;;;;
2023/03/08 04:43:00;;;;;;;3.1;3.0;;;;;;;0.7;100.0;99570;;;;
2023/03/08 04:44:00;;;;;;;3.1;3.0;;;;;;;0.7;100.0;99560;;;;
2023/03/08 04:45:00;;;;;;;3.1;3.0;;;;;;;0.7;100.0;99560;;;;
2023/03/08 04:46:02;;;;;;;3.1;3.0;;;;;;;0.7;100.0;99560;;;;
2023/03/08 04:47:00;;;;;;;3.1;3.0;;;;;;;0.7;100.0;99560;;;;
2023/03/08 04:48:00;;;;;;;3.7;3.6;;;;;;;0.8;100.0;99560;;;;
2023/03/08 04:49:00;;;;;;;3.7;3.6;;;;;;;0.8;100.0;99560;;;;
2023/03/08 04:50:00;;;;;;;3.7;3.6;;;;;;;0.7;100.0;99550;;;;
2023/03/08 04:51:01;;;;;;;3.7;3.6;;;;;;;0.7;100.0;99550;;;;
2023/03/08 04:52:00;;;;;;;3.7;3.6;;;;;;;0.8;100.0;99560;;;;
2023/03/08 04:53:00;;;;;;;3.7;3.6;;;;;;;0.8;100.0;99560;;;;
2023/03/08 04:54:00;;;;;;;3.7;3.6;;;;;;;0.8;100.0;99550;;;;
2023/03/08 04:55:00;;;;;;;3.7;3.6;;;;;;;0.8;100.0;99550;;;;
2023/03/08 04:56:00;;;;;;;3.7;3.6;;;;;;;0.8;100.0;99550;;;;
2023/03/08 04:57:00;;;;;;;3.7;3.6;;;;;;;0.8;100.0;99550;;;;
2023/03/08 04:58:00;;;;;;;3.7;3.6;;;;;;;0.8;100.0;99540;;;;
2023/03/08 04:59:00;;;;;;;3.7;3.6;;;;;;;0.8;100.0;99540;;;;
2023/03/08 05:00:00;;;;;;;3.7;3.6;;;;;;;0.7;100.0;99530;;;;
2023/03/08 05:01:07;;;;;;;3.7;3.6;;;;;;;0.7;100.0;99530;;;;
2023/03/08 05:02:00;;;;;;;3.7;3.6;;;;;;;0.6;100.0;99530;;;;
2023/03/08 05:03:00;;;;;;;3.7;3.6;;;;;;;0.6;100.0;99530;;;;
2023/03/08 05:04:00;;;;;;;3.7;3.6;;;;;;;0.6;100.0;99530;;;;
2023/03/08 05:05:00;;;;;;;3.7;3.6;;;;;;;0.6;100.0;99530;;;;
2023/03/08 05:06:00;;;;;;;3.7;3.6;;;;;;;0.7;100.0;99520;;;;
2023/03/08 05:07:00;;;;;;;3.7;3.6;;;;;;;0.7;100.0;99520;;;;
2023/03/08 05:08:04;;;;;;;3.2;3.1;;;;;;;0.7;100.0;99520;;;;
2023/03/08 05:09:00;;;;;;;3.2;3.1;;;;;;;0.7;100.0;99520;;;;
2023/03/08 05:10:00;;;;;;;3.2;3.1;;;;;;;0.8;100.0;99510;;;;
2023/03/08 05:11:01;;;;;;;3.2;3.1;;;;;;;0.8;100.0;99510;;;;
2023/03/08 05:12:00;;;;;;;3.2;3.1;;;;;;;1.0;100.0;99510;;;;
2023/03/08 05:13:00;;;;;;;3.2;3.1;;;;;;;1.0;100.0;99510;;;;
2023/03/08 05:14:00;;;;;;;3.2;3.1;;;;;;;0.8;100.0;99510;;;;
2023/03/08 05:15:00;;;;;;;3.2;3.1;;;;;;;0.8;100.0;99510;;;;
2023/03/08 05:16:01;;;;;;;3.2;3.1;;;;;;;0.7;100.0;99510;;;;
2023/03/08 05:17:02;;;;;;;3.2;3.1;;;;;;;0.7;100.0;99510;;;;
2023/03/08 05:18:00;;;;;;;3.2;3.1;;;;;;;0.7;100.0;99510;;;;
2023/03/08 05:19:00;;;;;;;3.2;3.1;;;;;;;0.7;100.0;99510;;;;
2023/03/08 05:20:00;;;;;;;3.2;3.1;;;;;;;0.7;100.0;99500;;;;
2023/03/08 05:21:01;;;;;;;3.2;3.1;;;;;;;0.7;100.0;99500;;;;
2023/03/08 05:22:00;;;;;;;3.2;3.1;;;;;;;0.7;100.0;99500;;;;
2023/03/08 05:23:00;;;;;;;3.2;3.1;;;;;;;0.7;100.0;99500;;;;
2023/03/08 05:24:00;;;;;;;3.2;3.1;;;;;;;0.6;100.0;99500;;;;
2023/03/08 05:25:00;;;;;;;3.2;3.1;;;;;;;0.6;100.0;99500;;;;
2023/03/08 05:26:01;;;;;;;3.2;3.1;;;;;;;0.5;100.0;99490;;;;
2023/03/08 05:27:00;;;;;;;3.2;3.1;;;;;;;0.5;100.0;99490;;;;
2023/03/08 05:28:00;;;;;;;2.9;2.8;;;;;;;0.6;100.0;99490;;;;
2023/03/08 05:29:02;;;;;;;2.9;2.8;;;;;;;0.6;100.0;99490;;;;
2023/03/08 05:30:00;;;;;;;2.9;2.8;;;;;;;0.7;100.0;99490;;;;
2023/03/08 05:31:10;;;;;;;2.9;2.8;;;;;;;0.7;100.0;99490;;;;
2023/03/08 05:32:01;;;;;;;2.9;2.8;;;;;;;0.8;100.0;99480;;;;
2023/03/08 05:33:00;;;;;;;2.9;2.8;;;;;;;0.8;100.0;99480;;;;
2023/03/08 05:34:00;;;;;;;2.9;2.8;;;;;;;0.7;100.0;99470;;;;
2023/03/08 05:35:00;;;;;;;2.9;2.8;;;;;;;0.7;100.0;99470;;;;
2023/03/08 05:36:00;;;;;;;2.9;2.8;;;;;;;0.6;100.0;99470;;;;
2023/03/08 05:37:00;;;;;;;2.9;2.8;;;;;;;0.6;100.0;99470;;;;
2023/03/08 05:38:00;;;;;;;2.9;2.8;;;;;;;0.6;100.0;99470;;;;
2023/03/08 05:39:00;;;;;;;2.9;2.8;;;;;;;0.6;100.0;99470;;;;
2023/03/08 05:40:00;;;;;;;2.9;2.8;;;;;;;0.7;100.0;99470;;;;
2023/03/08 05:41:01;;;;;;;2.9;2.8;;;;;;;0.7;100.0;99470;;;;
2023/03/08 05:42:00;;;;;;;2.9;2.8;;;;;;;0.7;100.0;99460;;;;
2023/03/08 05:43:00;;;;;;;2.9;2.8;;;;;;;0.7;100.0;99460;;;;
2023/03/08 05:44:00;;;;;;;2.9;2.8;;;;;;;0.7;100.0;99460;;;;
2023/03/08 05:45:00;;;;;;;2.9;2.8;;;;;;;0.7;100.0;99460;;;;
2023/03/08 05:46:02;;;;;;;2.9;2.8;;;;;;;0.8;100.0;99460;;;;
2023/03/08 05:47:00;;;;;;;2.9;2.8;;;;;;;0.8;100.0;99460;;;;
2023/03/08 05:48:00;;;;;;;3.1;3.0;;;;;;;0.6;100.0;99450;;;;
2023/03/08 05:49:00;;;;;;;3.1;3.0;;;;;;;0.6;100.0;99450;;;;
2023/03/08 05:50:00;;;;;;;3.1;3.0;;;;;;;0.7;100.0;99440;;;;
2023/03/08 05:51:04;;;;;;;3.1;3.0;;;;;;;0.7;100.0;99440;;;;
2023/03/08 05:52:00;;;;;;;3.1;3.0;;;;;;;0.6;100.0;99440;;;;
2023/03/08 05:53:00;;;;;;;3.1;3.0;;;;;;;0.6;100.0;99440;;;;
2023/03/08 05:54:00;;;;;;;3.1;3.0;;;;;;;0.4;100.0;99430;;;;
2023/03/08 05:55:00;;;;;;;3.1;3.0;;;;;;;0.4;100.0;99430;;;;
2023/03/08 05:56:10;;;;;;;3.1;3.0;;;;;;;0.3;100.0;99430;;;;
2023/03/08 05:57:00;;;;;;;3.1;3.0;;;;;;;0.3;100.0;99430;;;;
2023/03/08 05:58:00;;;;;;;3.1;3.0;;;;;;;0.2;100.0;99430;;;;
2023/03/08 05:59:00;;;;;;;3.1;3.0;;;;;;;0.2;100.0;99430;;;;
2023/03/08 06:00:00;;;;;;;3.1;3.0;;;;;;;0.3;100.0;99420;;;;
2023/03/08 06:01:07;;;;;;;3.1;3.0;;;;;;;0.3;100.0;99420;;;;
2023/03/08 06:02:00;;;;;;;3.1;3.0;;;;;;;0.4;100.0;99420;;;;
2023/03/08 06:03:02;;;;;;;3.1;3.0;;;;;;;0.4;100.0;99420;;;;
2023/03/08 06:04:00;;;;;;;3.1;3.0;;;;;;;0.4;100.0;99420;;;;
2023/03/08 06:05:00;;;;;;;3.1;3.0;;;;;;;0.4;100.0;99420;;;;
2023/03/08 06:06:00;;;;;;;3.1;3.0;;;;;;;0.4;100.0;99410;;;;
2023/03/08 06:07:00;;;;;;;3.1;3.0;;;;;;;0.4;100.0;99410;;;;
2023/03/08 06:08:00;;;;;;;3.4;3.3;;;;;;;0.4;100.0;99410;;;;
2023/03/08 06:09:00;;;;;;;3.4;3.3;;;;;;;0.4;100.0;99410;;;;
2023/03/08 06:10:00;;;;;;;3.4;3.3;;;;;;;0.4;100.0;99410;;;;
2023/03/08 06:11:00;;;;;;;3.4;3.3;;;;;;;0.4;100.0;99410;;;;
2023/03/08 06:12:00;;;;;;;3.4;3.3;;;;;;;0.6;100.0;99410;;;;
2023/03/08 06:13:02;;;;;;;3.4;3.3;;;;;;;0.6;100.0;99410;;;;
2023/03/08 06:14:00;;;;;;;3.4;3.3;;;;;;;0.5;100.0;99400;;;;
2023/03/08 06:15:00;;;;;;;3.4;3.3;;;;;;;0.5;100.0;99400;;;;
2023/03/08 06:16:00;;;;;;;3.4;3.3;;;;;;;0.6;100.0;99400;;;;
2023/03/08 06:17:00;;;;;;;3.4;3.3;;;;;;;0.6;100.0;99400;;;;
2023/03/08 06:18:00;;;;;;;3.4;3.3;;;;;;;0.6;100.0;99390;;;;
2023/03/08 06:19:00;;;;;;;3.4;3.3;;;;;;;0.6;100.0;99390;;;;
2023/03/08 06:20:00;;;;;;;3.4;3.3;;;;;;;0.5;100.0;99400;;;;
2023/03/08 06:21:01;;;;;;;3.4;3.3;;;;;;;0.5;100.0;99400;;;;
2023/03/08 06:22:00;;;;;;;3.4;3.3;;;;;;;0.5;100.0;99400;;;;
2023/03/08 06:23:00;;;;;;;3.4;3.3;;;;;;;0.5;100.0;99400;;;;
2023/03/08 06:24:00;;;;;;;3.4;3.3;;;;;;;0.6;100.0;99390;;;;
2023/03/08 06:25:01;;;;;;;3.4;3.3;;;;;;;0.6;100.0;99390;;;;
2023/03/08 06:26:00;;;;;;;3.4;3.3;;;;;;;0.6;100.0;99400;;;;
2023/03/08 06:27:00;;;;;;;3.4;3.3;;;;;;;0.6;100.0;99400;;;;
2023/03/08 06:28:00;;;;;;;3.1;3.0;;;;;;;0.6;100.0;99400;;;;
2023/03/08 06:29:00;;;;;;;3.1;3.0;;;;;;;0.6;100.0;99400;;;;
2023/03/08 06:30:00;;;;;;;3.1;3.0;;;;;;;0.6;100.0;99390;;;;
2023/03/08 06:31:00;;;;;;;3.1;3.0;;;;;;;0.6;100.0;99390;;;;
2023/03/08 06:32:02;;;;;;;3.1;3.0;;;;;;;0.5;100.0;99390;;;;
2023/03/08 06:33:00;;;;;;;3.1;3.0;;;;;;;0.5;100.0;99390;;;;